Time;durP1;ratioP1;P1;durP2;ratioP2;P2;SDS_P1;SDS_P2;PMS_P1;PMS_P2;Temp;Humidity;BMP_temperature;BMP_pressure;BME280_temperature;BME280_humidity;BME280_pressure;Samples;Min_cycle;Max_cycle;Signal;HPM_P1;HPM_P2
2023/02/21 02:15:27;;;;;;;2.55;0.75;;;;;;;;;;5025658;28;20158;-63
2023/02/21 02:18:02;;;;;;;5.32;0.80;;;;;;;;;;5023841;28;20178;-63
2023/02/21 02:20:47;;;;;;;9.90;1.40;;;;;;;;;;5021417;28;20176;-62
2023/02/21 02:23:32;;;;;;;5.95;1.10;;;;;;;;;;5013834;28;20165;-60
2023/02/21 02:26:19;;;;;;;4.18;1.10;;;;;;;;;;5013259;28;20253;-60
2023/02/21 02:29:05;;;;;;;7.65;1.30;;;;;;;;;;5013448;28;20158;-61
2023/02/21 02:31:43;;;;;;;4.97;1.45;;;;;;;;;;5114452;28;20179;-60
2023/02/21 02:34:34;;;;;;;8.35;1.10;;;;;;;;;;5114368;28;20262;-60
2023/02/21 02:37:20;;;;;;;7.20;1.52;;;;;;;;;;5114668;28;20619;-61
2023/02/21 02:39:55;;;;;;;5.50;1.25;;;;;;;;;;5114276;28;20605;-61
2023/02/21 02:42:27;;;;;;;6.32;1.20;;;;;;;;;;5114734;28;20151;-62
2023/02/21 02:44:57;;;;;;;5.57;1.40;;;;;;;;;;5116072;28;20238;-62
2023/02/21 02:47:26;;;;;;;8.82;1.50;;;;;;;;;;5115442;28;20182;-62
2023/02/21 02:49:53;;;;;;;5.82;1.30;;;;;;;;;;5115325;28;20518;-63
2023/02/21 02:52:19;;;;;;;10.85;1.67;;;;;;;;;;5114297;28;20183;-62
2023/02/21 02:54:57;;;;;;;9.55;1.40;;;;;;;;;;5115093;28;20258;-62
2023/02/21 02:57:23;;;;;;;8.63;1.48;;;;;;;;;;5114595;28;20213;-63
2023/02/21 02:59:48;;;;;;;5.57;1.05;;;;;;;;;;5114024;28;20163;-63
2023/02/21 03:02:18;;;;;;;5.03;1.35;;;;;;;;;;5072456;28;20628;-65
2023/02/21 03:05:19;;;;;;;9.77;1.85;;;;;;;;;;5012664;28;20163;-63
2023/02/21 03:07:45;;;;;;;7.47;1.70;;;;;;;;;;5093754;28;20257;-65
2023/02/21 03:10:11;;;;;;;4.05;1.50;;;;;;;;;;5093545;28;20262;-64
2023/02/21 03:12:41;;;;;;;8.60;1.70;;;;;;;;;;5097664;28;20171;-63
2023/02/21 03:15:07;;;;;;;10.85;1.77;;;;;;;;;;5097760;28;20171;-64
2023/02/21 03:17:36;;;;;;;8.15;1.75;;;;;;;;;;5097065;28;20184;-64
2023/02/21 03:20:04;;;;;;;7.53;1.52;;;;;;;;;;5097612;28;20168;-63
2023/02/21 03:22:30;;;;;;;7.15;1.45;;;;;;;;;;5097716;28;20621;-64
2023/02/21 03:24:58;;;;;;;6.55;1.35;;;;;;;;;;5097691;28;20171;-63
2023/02/21 03:27:25;;;;;;;10.50;1.83;;;;;;;;;;5096994;28;20187;-63
2023/02/21 03:29:51;;;;;;;7.88;1.40;;;;;;;;;;5097661;28;20179;-63
2023/02/21 03:32:46;;;;;;;6.00;1.13;;;;;;;;;;5097758;28;20210;-63
2023/02/21 03:35:12;;;;;;;9.52;1.83;;;;;;;;;;5080556;28;20176;-63
2023/02/21 03:37:52;;;;;;;8.80;1.70;;;;;;;;;;5097340;28;20167;-63
2023/02/21 03:40:25;;;;;;;10.60;1.90;;;;;;;;;;5097292;28;20164;-63
2023/02/21 03:42:52;;;;;;;7.43;1.38;;;;;;;;;;5016131;28;20515;-63
2023/02/21 03:45:18;;;;;;;8.80;2.45;;;;;;;;;;5015357;28;20224;-62
2023/02/21 03:47:44;;;;;;;7.50;2.17;;;;;;;;;;5015536;28;20174;-64
2023/02/21 03:50:10;;;;;;;6.97;2.05;;;;;;;;;;5015511;28;20218;-63
2023/02/21 03:52:36;;;;;;;12.10;2.30;;;;;;;;;;5015247;28;20281;-63
2023/02/21 03:55:02;;;;;;;7.10;1.77;;;;;;;;;;5015651;28;20178;-63
2023/02/21 03:57:28;;;;;;;9.90;1.55;;;;;;;;;;5015466;28;20190;-63
2023/02/21 03:59:54;;;;;;;6.80;1.70;;;;;;;;;;5015180;28;20231;-63
2023/02/21 04:02:20;;;;;;;8.35;1.85;;;;;;;;;;5015417;28;20182;-63
2023/02/21 04:04:47;;;;;;;9.18;1.20;;;;;;;;;;5014965;28;20174;-63
2023/02/21 04:07:14;;;;;;;5.13;1.67;;;;;;;;;;5015432;28;20186;-63
2023/02/21 04:09:40;;;;;;;7.68;1.70;;;;;;;;;;5015142;28;20174;-64
2023/02/21 04:12:07;;;;;;;6.55;1.48;;;;;;;;;;5015294;28;20498;-61
2023/02/21 04:14:33;;;;;;;9.93;2.15;;;;;;;;;;5014847;28;20509;-62
2023/02/21 04:16:59;;;;;;;9.55;2.42;;;;;;;;;;5015264;28;20201;-63
2023/02/21 04:19:25;;;;;;;7.20;1.70;;;;;;;;;;5014857;28;20642;-63
2023/02/21 04:21:51;;;;;;;11.45;2.13;;;;;;;;;;5015016;28;20166;-62
2023/02/21 04:24:17;;;;;;;12.40;2.35;;;;;;;;;;5014565;28;20166;-62
2023/02/21 04:26:43;;;;;;;7.68;2.20;;;;;;;;;;5015075;28;20202;-63
2023/02/21 04:29:09;;;;;;;10.75;1.92;;;;;;;;;;5014626;28;20173;-62
2023/02/21 04:31:35;;;;;;;7.97;1.80;;;;;;;;;;5014957;28;20459;-63
2023/02/21 04:34:01;;;;;;;7.57;1.75;;;;;;;;;;5014947;28;20177;-62
2023/02/21 04:36:28;;;;;;;9.95;1.73;;;;;;;;;;5014827;28;20194;-62
2023/02/21 04:38:54;;;;;;;12.00;1.90;;;;;;;;;;5014686;28;20170;-62
2023/02/21 04:41:22;;;;;;;10.60;1.98;;;;;;;;;;5014595;28;20605;-61
2023/02/21 04:43:48;;;;;;;8.13;1.45;;;;;;;;;;5014682;28;20261;-62
2023/02/21 04:46:16;;;;;;;11.63;2.10;;;;;;;;;;5014736;28;20174;-62
2023/02/21 04:48:46;;;;;;;8.70;1.60;;;;;;;;;;5014666;28;20205;-61
2023/02/21 04:51:12;;;;;;;8.27;1.75;;;;;;;;;;5014683;28;20186;-59
2023/02/21 04:53:38;;;;;;;11.98;2.95;;;;;;;;;;5014657;28;20228;-62
2023/02/21 04:56:04;;;;;;;8.85;1.92;;;;;;;;;;5015349;28;20198;-62
2023/02/21 04:58:30;;;;;;;11.05;2.03;;;;;;;;;;5013893;28;20527;-61
2023/02/21 05:00:56;;;;;;;11.40;1.90;;;;;;;;;;5014652;28;20204;-62
2023/02/21 05:03:23;;;;;;;10.40;1.92;;;;;;;;;;5014182;28;20190;-60
2023/02/21 05:05:49;;;;;;;10.48;2.42;;;;;;;;;;5014399;28;20201;-62
2023/02/21 05:08:18;;;;;;;11.93;2.08;;;;;;;;;;5014529;28;20601;-61
2023/02/21 05:10:45;;;;;;;7.88;2.17;;;;;;;;;;5014272;28;20185;-61
2023/02/21 05:13:11;;;;;;;8.38;1.75;;;;;;;;;;5014254;28;20174;-61
2023/02/21 05:15:37;;;;;;;9.75;1.80;;;;;;;;;;5014140;28;20190;-63
2023/02/21 05:18:03;;;;;;;20.50;3.55;;;;;;;;;;5014311;28;20170;-61
2023/02/21 05:20:29;;;;;;;10.00;2.53;;;;;;;;;;5014213;28;20166;-60
2023/02/21 05:22:55;;;;;;;16.27;2.17;;;;;;;;;;5014614;28;20163;-60
2023/02/21 05:25:22;;;;;;;9.57;2.42;;;;;;;;;;5014481;28;20652;-61
2023/02/21 05:27:49;;;;;;;11.82;2.00;;;;;;;;;;5013953;28;20538;-62
2023/02/21 05:30:15;;;;;;;12.07;2.15;;;;;;;;;;5013294;28;20174;-61
2023/02/21 05:32:41;;;;;;;10.50;2.28;;;;;;;;;;5014058;28;20654;-61
2023/02/21 05:35:08;;;;;;;15.13;2.55;;;;;;;;;;5013090;28;20253;-61
2023/02/21 05:37:34;;;;;;;9.68;2.28;;;;;;;;;;5013828;28;20216;-60
2023/02/21 05:40:00;;;;;;;12.00;2.45;;;;;;;;;;5013938;28;20162;-61
2023/02/21 05:42:26;;;;;;;15.82;3.47;;;;;;;;;;5013982;28;20170;-59
2023/02/21 05:44:52;;;;;;;12.43;2.15;;;;;;;;;;5013902;28;20167;-61
2023/02/21 05:47:18;;;;;;;7.47;2.13;;;;;;;;;;5013901;28;20170;-61
2023/02/21 05:49:44;;;;;;;9.95;1.95;;;;;;;;;;5014191;28;20581;-60
2023/02/21 05:52:11;;;;;;;13.20;2.25;;;;;;;;;;5013809;28;20243;-60
2023/02/21 05:54:37;;;;;;;9.38;2.17;;;;;;;;;;5013862;28;20166;-62
2023/02/21 05:57:04;;;;;;;13.18;2.28;;;;;;;;;;5014332;28;20221;-60
2023/02/21 05:59:30;;;;;;;9.90;2.45;;;;;;;;;;5014232;28;20243;-60
2023/02/21 06:01:56;;;;;;;8.15;2.40;;;;;;;;;;5013892;28;20601;-57
2023/02/21 06:04:22;;;;;;;19.17;2.65;;;;;;;;;;5013562;28;20194;-59
2023/02/21 06:06:48;;;;;;;10.82;2.33;;;;;;;;;;5013534;28;20170;-61
2023/02/21 06:09:15;;;;;;;10.82;2.92;;;;;;;;;;5013692;28;20178;-60
2023/02/21 06:11:41;;;;;;;17.70;3.03;;;;;;;;;;5013539;28;20227;-60
2023/02/21 06:14:09;;;;;;;14.88;2.38;;;;;;;;;;5013457;28;20508;-60
2023/02/21 06:16:36;;;;;;;16.85;3.15;;;;;;;;;;5013886;28;20579;-60
2023/02/21 06:19:03;;;;;;;13.18;3.17;;;;;;;;;;5016011;28;20166;-61
2023/02/21 06:21:29;;;;;;;17.10;3.22;;;;;;;;;;5017310;28;20189;-59
2023/02/21 06:23:55;;;;;;;11.63;2.25;;;;;;;;;;5015026;28;20166;-61
2023/02/21 06:26:21;;;;;;;15.55;3.22;;;;;;;;;;5024991;28;20188;-60
2023/02/21 06:28:48;;;;;;;11.23;2.92;;;;;;;;;;5027897;28;20179;-61
2023/02/21 06:31:14;;;;;;;10.23;2.35;;;;;;;;;;5030527;28;20215;-62
2023/02/21 06:33:40;;;;;;;11.27;2.50;;;;;;;;;;5029747;28;20219;-58
2023/02/21 06:36:08;;;;;;;13.65;2.47;;;;;;;;;;5024191;28;20198;-61
2023/02/21 06:38:34;;;;;;;16.60;2.83;;;;;;;;;;5022049;28;20182;-59
2023/02/21 06:41:00;;;;;;;20.50;3.30;;;;;;;;;;5016908;28;20257;-61
2023/02/21 06:43:26;;;;;;;10.23;2.40;;;;;;;;;;5016462;28;20182;-61
2023/02/21 06:45:52;;;;;;;16.80;2.67;;;;;;;;;;5013259;28;20166;-61
2023/02/21 06:48:18;;;;;;;17.17;3.17;;;;;;;;;;5013166;28;20617;-59
2023/02/21 06:50:44;;;;;;;15.30;2.80;;;;;;;;;;5013494;28;20181;-59
2023/02/21 06:53:10;;;;;;;17.25;2.78;;;;;;;;;;5012484;28;20283;-60
2023/02/21 06:55:36;;;;;;;12.18;2.05;;;;;;;;;;5013495;28;20201;-59
2023/02/21 06:58:02;;;;;;;14.60;2.58;;;;;;;;;;5013684;28;20608;-61
2023/02/21 07:00:28;;;;;;;10.13;2.67;;;;;;;;;;5013021;28;20577;-62
2023/02/21 07:02:54;;;;;;;16.50;3.33;;;;;;;;;;5012940;28;20189;-61
2023/02/21 07:05:20;;;;;;;12.98;2.85;;;;;;;;;;5012299;28;20177;-59
2023/02/21 07:07:46;;;;;;;20.10;2.63;;;;;;;;;;5013776;28;20243;-60
2023/02/21 07:10:12;;;;;;;18.17;3.70;;;;;;;;;;5012459;28;20181;-61
2023/02/21 07:12:39;;;;;;;12.52;2.70;;;;;;;;;;5012651;28;20249;-59
2023/02/21 07:15:06;;;;;;;8.88;2.42;;;;;;;;;;5012918;28;20204;-62
2023/02/21 07:17:32;;;;;;;14.70;2.25;;;;;;;;;;5012586;28;20201;-59
2023/02/21 07:19:58;;;;;;;16.25;2.80;;;;;;;;;;5012585;28;20257;-63
2023/02/21 07:22:27;;;;;;;13.48;2.78;;;;;;;;;;5012632;28;20612;-61
2023/02/21 07:24:53;;;;;;;15.45;3.03;;;;;;;;;;5012419;28;20212;-63
2023/02/21 07:27:19;;;;;;;10.88;2.58;;;;;;;;;;5012540;28;20473;-64
2023/02/21 07:29:46;;;;;;;18.50;3.80;;;;;;;;;;5012193;28;20171;-63
2023/02/21 07:32:12;;;;;;;15.65;2.60;;;;;;;;;;5012552;28;20597;-61
2023/02/21 07:34:38;;;;;;;14.90;2.47;;;;;;;;;;5012395;28;20170;-60
2023/02/21 07:37:04;;;;;;;18.50;3.17;;;;;;;;;;5012620;28;20524;-59
2023/02/21 07:39:30;;;;;;;15.93;2.65;;;;;;;;;;5012339;28;20499;-61
2023/02/21 07:41:56;;;;;;;16.77;3.50;;;;;;;;;;5011974;28;20193;-62
2023/02/21 07:44:22;;;;;;;18.92;2.95;;;;;;;;;;5011820;28;20213;-59
2023/02/21 07:46:48;;;;;;;14.15;2.45;;;;;;;;;;5011817;28;20184;-61
2023/02/21 07:49:14;;;;;;;11.90;2.63;;;;;;;;;;5012187;28;20560;-62
2023/02/21 07:51:40;;;;;;;14.13;2.67;;;;;;;;;;5011731;28;20243;-61
2023/02/21 07:54:06;;;;;;;14.63;2.83;;;;;;;;;;5012235;28;20162;-60
2023/02/21 07:56:32;;;;;;;14.75;2.60;;;;;;;;;;5012083;28;20247;-61
2023/02/21 07:58:58;;;;;;;10.77;2.30;;;;;;;;;;5014216;28;20174;-63
2023/02/21 08:01:25;;;;;;;18.08;3.20;;;;;;;;;;5015090;28;20181;-61
2023/02/21 08:03:51;;;;;;;13.40;2.30;;;;;;;;;;5015510;28;20583;-62
2023/02/21 08:06:17;;;;;;;12.32;4.03;;;;;;;;;;5015421;28;20507;-62
2023/02/21 08:08:46;;;;;;;13.13;2.60;;;;;;;;;;5015384;28;20182;-62
2023/02/21 08:11:12;;;;;;;20.13;2.55;;;;;;;;;;5015134;28;20214;-61
2023/02/21 08:13:38;;;;;;;17.25;3.15;;;;;;;;;;5015229;28;20209;-61
2023/02/21 08:16:04;;;;;;;14.35;2.90;;;;;;;;;;5014985;28;20205;-62
2023/02/21 08:18:30;;;;;;;18.10;2.90;;;;;;;;;;5014870;28;20620;-62
2023/02/21 08:20:56;;;;;;;12.93;2.53;;;;;;;;;;5015111;28;20159;-62
2023/02/21 08:23:22;;;;;;;17.52;3.35;;;;;;;;;;5015181;28;20445;-60
2023/02/21 08:25:48;;;;;;;9.98;2.40;;;;;;;;;;5014726;28;20207;-60
2023/02/21 08:28:15;;;;;;;16.40;2.53;;;;;;;;;;5014786;28;20231;-61
2023/02/21 08:30:42;;;;;;;15.07;4.00;;;;;;;;;;5015278;28;20205;-60
2023/02/21 08:33:10;;;;;;;16.38;2.80;;;;;;;;;;5015201;28;20171;-61
2023/02/21 08:35:36;;;;;;;17.73;3.33;;;;;;;;;;5015411;28;20235;-61
2023/02/21 08:38:02;;;;;;;13.77;2.60;;;;;;;;;;5015019;28;20548;-60
2023/02/21 08:40:31;;;;;;;14.70;3.33;;;;;;;;;;5015505;28;20189;-60
2023/02/21 08:42:57;;;;;;;17.45;3.20;;;;;;;;;;5015007;28;20226;-61
2023/02/21 08:45:24;;;;;;;17.50;3.20;;;;;;;;;;5014740;28;20175;-62
2023/02/21 08:47:51;;;;;;;18.13;2.90;;;;;;;;;;5015087;28;20182;-62
2023/02/21 08:50:17;;;;;;;15.48;3.17;;;;;;;;;;5014688;28;20182;-61
2023/02/21 08:52:45;;;;;;;15.80;2.90;;;;;;;;;;5014376;28;20608;-61
2023/02/21 08:55:11;;;;;;;20.15;3.35;;;;;;;;;;5014878;28;20214;-61
2023/02/21 08:57:37;;;;;;;13.07;3.15;;;;;;;;;;5014258;28;20293;-60
2023/02/21 09:00:10;;;;;;;12.52;2.63;;;;;;;;;;5014643;28;20174;-61
2023/02/21 09:02:39;;;;;;;15.98;3.22;;;;;;;;;;5014316;28;20174;-62
2023/02/21 09:05:13;;;;;;;13.40;2.47;;;;;;;;;;5014472;28;20167;-60
2023/02/21 09:07:39;;;;;;;13.38;3.10;;;;;;;;;;5014423;28;20170;-60
2023/02/21 09:10:06;;;;;;;13.38;3.50;;;;;;;;;;5014396;28;20170;-61
2023/02/21 09:12:32;;;;;;;15.30;3.45;;;;;;;;;;5014030;28;20612;-60
2023/02/21 09:14:58;;;;;;;14.27;2.53;;;;;;;;;;5014562;28;20185;-61
2023/02/21 09:17:24;;;;;;;17.65;3.60;;;;;;;;;;5014300;28;20513;-61
2023/02/21 09:19:50;;;;;;;14.95;2.97;;;;;;;;;;5015135;28;20247;-59
2023/02/21 09:22:17;;;;;;;13.45;3.03;;;;;;;;;;5014305;28;20254;-60
2023/02/21 09:24:43;;;;;;;14.35;2.75;;;;;;;;;;5015040;28;20253;-61
2023/02/21 09:27:09;;;;;;;16.23;3.08;;;;;;;;;;5013901;28;20205;-62
2023/02/21 09:29:35;;;;;;;18.10;3.35;;;;;;;;;;5014437;28;20171;-60
2023/02/21 09:32:02;;;;;;;17.60;2.75;;;;;;;;;;5014224;28;20241;-62
2023/02/21 09:34:28;;;;;;;13.05;3.05;;;;;;;;;;5013834;28;20550;-60
2023/02/21 09:36:55;;;;;;;20.40;3.83;;;;;;;;;;5014018;28;20209;-59
2023/02/21 09:39:21;;;;;;;18.52;3.45;;;;;;;;;;5014148;28;20166;-58
2023/02/21 09:41:50;;;;;;;18.02;3.47;;;;;;;;;;5014209;28;20174;-56
2023/02/21 09:44:17;;;;;;;13.63;2.35;;;;;;;;;;5014156;28;20175;-60
2023/02/21 09:46:52;;;;;;;16.75;3.63;;;;;;;;;;5014525;28;20178;-60
2023/02/21 09:49:25;;;;;;;15.85;2.58;;;;;;;;;;5014531;28;20184;-60
2023/02/21 09:51:52;;;;;;;19.70;3.50;;;;;;;;;;5014958;28;20554;-60
2023/02/21 09:54:32;;;;;;;13.82;3.05;;;;;;;;;;5016673;28;20212;-57
2023/02/21 09:57:00;;;;;;;17.63;3.72;;;;;;;;;;5014791;28;20516;-61
2023/02/21 09:59:26;;;;;;;15.68;3.63;;;;;;;;;;5014306;28;20171;-61
2023/02/21 10:01:52;;;;;;;20.13;3.72;;;;;;;;;;5014138;28;20210;-62
2023/02/21 10:04:24;;;;;;;15.05;2.97;;;;;;;;;;5013615;28;20479;-61
2023/02/21 10:06:56;;;;;;;11.38;2.60;;;;;;;;;;5013444;28;20158;-61
2023/02/21 10:09:28;;;;;;;19.38;3.13;;;;;;;;;;5013456;28;20175;-61
2023/02/21 10:11:54;;;;;;;20.67;3.72;;;;;;;;;;5013468;28;20227;-60
2023/02/21 10:14:36;;;;;;;19.85;3.60;;;;;;;;;;5013831;28;20495;-61
2023/02/21 10:17:15;;;;;;;18.42;3.00;;;;;;;;;;5013338;28;20189;-60
2023/02/21 10:19:43;;;;;;;12.35;2.72;;;;;;;;;;5013413;28;20181;-61
2023/02/21 10:22:25;;;;;;;14.20;2.97;;;;;;;;;;5012794;28;20261;-61
2023/02/21 10:24:51;;;;;;;14.32;3.40;;;;;;;;;;5013723;28;20178;-61
2023/02/21 10:27:22;;;;;;;17.38;3.55;;;;;;;;;;5013342;28;20261;-59
2023/02/21 10:29:54;;;;;;;19.38;3.65;;;;;;;;;;5013387;28;20203;-61
2023/02/21 10:32:20;;;;;;;15.63;3.00;;;;;;;;;;5012848;28;20532;-62
2023/02/21 10:34:47;;;;;;;20.42;3.70;;;;;;;;;;5013116;28;20666;-60
2023/02/21 10:37:22;;;;;;;22.98;4.30;;;;;;;;;;5012545;28;20205;-61
2023/02/21 10:39:50;;;;;;;16.52;3.50;;;;;;;;;;5013091;28;20544;-59
2023/02/21 10:42:28;;;;;;;13.35;3.15;;;;;;;;;;5012913;28;20216;-59
2023/02/21 10:44:55;;;;;;;15.55;2.83;;;;;;;;;;5013332;28;20154;-58
2023/02/21 10:47:50;;;;;;;18.45;3.47;;;;;;;;;;5013130;28;20197;-59
2023/02/21 10:50:35;;;;;;;13.25;2.90;;;;;;;;;;5029959;28;20194;-59
2023/02/21 10:53:01;;;;;;;17.67;3.17;;;;;;;;;;5013202;28;20213;-59
2023/02/21 10:55:27;;;;;;;18.70;3.78;;;;;;;;;;5012552;28;20593;-56
2023/02/21 10:57:55;;;;;;;16.67;3.38;;;;;;;;;;5012918;28;20178;-60
2023/02/21 11:00:50;;;;;;;19.33;3.90;;;;;;;;;;5013429;28;20178;-61
2023/02/21 11:03:22;;;;;;;27.05;3.97;;;;;;;;;;5029173;28;20198;-57
2023/02/21 11:05:51;;;;;;;16.30;3.67;;;;;;;;;;5012837;28;20174;-61
2023/02/21 11:08:33;;;;;;;19.42;4.25;;;;;;;;;;5012785;28;20231;-59
2023/02/21 11:10:59;;;;;;;19.58;3.42;;;;;;;;;;5012916;28;20242;-60
2023/02/21 11:13:26;;;;;;;18.30;3.67;;;;;;;;;;5012796;28;20527;-60
2023/02/21 11:16:07;;;;;;;18.67;3.70;;;;;;;;;;5012693;28;20289;-59
2023/02/21 11:18:33;;;;;;;14.32;3.25;;;;;;;;;;5013011;28;20174;-60
2023/02/21 11:21:09;;;;;;;14.43;2.67;;;;;;;;;;5011857;28;20600;-58
2023/02/21 11:23:35;;;;;;;15.45;3.33;;;;;;;;;;5013077;28;20230;-61
2023/02/21 11:26:10;;;;;;;19.90;3.50;;;;;;;;;;5013194;28;20495;-61
2023/02/21 11:28:37;;;;;;;19.80;3.55;;;;;;;;;;5012500;28;20182;-61
2023/02/21 11:31:08;;;;;;;12.30;2.92;;;;;;;;;;5012116;28;20661;-60
2023/02/21 11:33:39;;;;;;;15.00;3.35;;;;;;;;;;5015905;28;20170;-60
2023/02/21 11:36:11;;;;;;;13.88;2.85;;;;;;;;;;5028878;28;20205;-61
2023/02/21 11:38:55;;;;;;;14.77;3.85;;;;;;;;;;5036515;28;20158;-61
2023/02/21 11:41:23;;;;;;;20.83;3.67;;;;;;;;;;5035611;28;20141;-61
2023/02/21 11:43:50;;;;;;;12.77;2.90;;;;;;;;;;5027089;28;20171;-61
2023/02/21 11:46:17;;;;;;;19.70;3.55;;;;;;;;;;5025135;28;20182;-61
2023/02/21 11:48:54;;;;;;;14.40;3.15;;;;;;;;;;5023486;28;20178;-61
2023/02/21 11:51:36;;;;;;;14.88;2.90;;;;;;;;;;5025362;28;20166;-61
2023/02/21 11:54:03;;;;;;;14.30;2.72;;;;;;;;;;5014035;28;20496;-61
2023/02/21 11:56:29;;;;;;;16.25;3.20;;;;;;;;;;5014092;28;20711;-59
2023/02/21 11:59:16;;;;;;;15.07;2.75;;;;;;;;;;5016037;28;20202;-60
2023/02/21 12:01:42;;;;;;;12.48;3.13;;;;;;;;;;5015357;28;20501;-61
2023/02/21 12:04:09;;;;;;;18.38;3.35;;;;;;;;;;5015197;28;20174;-61
2023/02/21 12:06:45;;;;;;;14.25;2.83;;;;;;;;;;5015422;28;20185;-61
2023/02/21 12:09:14;;;;;;;16.88;2.97;;;;;;;;;;5021980;28;20181;-61
2023/02/21 12:11:44;;;;;;;15.32;3.25;;;;;;;;;;5035137;28;20212;-60
2023/02/21 12:14:29;;;;;;;15.55;3.25;;;;;;;;;;5034902;28;20166;-59
2023/02/21 12:17:04;;;;;;;15.95;2.78;;;;;;;;;;5035442;28;20508;-61
2023/02/21 12:19:30;;;;;;;14.18;3.10;;;;;;;;;;5017210;28;20496;-60
2023/02/21 12:22:10;;;;;;;14.65;3.15;;;;;;;;;;5015351;28;20239;-60
2023/02/21 12:24:36;;;;;;;16.42;3.30;;;;;;;;;;5014317;28;20174;-59
2023/02/21 12:27:10;;;;;;;12.40;3.20;;;;;;;;;;5013557;28;20551;-60
2023/02/21 12:30:02;;;;;;;16.98;3.42;;;;;;;;;;5013038;28;20162;-60
2023/02/21 12:32:44;;;;;;;17.88;2.90;;;;;;;;;;5013107;28;20187;-61
2023/02/21 12:35:29;;;;;;;17.95;3.00;;;;;;;;;;5012739;28;20165;-58
2023/02/21 12:38:06;;;;;;;24.13;3.70;;;;;;;;;;5012698;28;20193;-60
2023/02/21 12:40:51;;;;;;;16.63;3.22;;;;;;;;;;5013580;28;20253;-59
2023/02/21 12:43:23;;;;;;;16.70;3.00;;;;;;;;;;5013687;28;20175;-61
2023/02/21 12:45:52;;;;;;;12.75;2.88;;;;;;;;;;5014679;28;20174;-62
2023/02/21 12:48:24;;;;;;;16.70;3.03;;;;;;;;;;5014350;28;20189;-62
2023/02/21 12:50:52;;;;;;;14.02;3.20;;;;;;;;;;5013087;28;20253;-62
2023/02/21 12:53:22;;;;;;;16.67;3.67;;;;;;;;;;5012735;28;20174;-61
2023/02/21 12:55:53;;;;;;;15.43;3.42;;;;;;;;;;5012580;28;20166;-62
2023/02/21 12:58:31;;;;;;;18.73;3.00;;;;;;;;;;5012531;28;20154;-62
2023/02/21 13:00:57;;;;;;;21.73;4.95;;;;;;;;;;5012566;28;20464;-60
2023/02/21 13:03:41;;;;;;;13.27;3.20;;;;;;;;;;5012473;28;20181;-61
2023/02/21 13:06:16;;;;;;;15.23;3.10;;;;;;;;;;5014531;28;20488;-61
2023/02/21 13:09:01;;;;;;;15.73;3.38;;;;;;;;;;5014160;28;20334;-59
2023/02/21 13:11:45;;;;;;;17.15;3.00;;;;;;;;;;5014387;28;20628;-60
2023/02/21 13:14:16;;;;;;;13.48;3.20;;;;;;;;;;5014795;28;20174;-58
2023/02/21 13:16:43;;;;;;;16.02;3.10;;;;;;;;;;5014336;28;20186;-62
2023/02/21 13:19:11;;;;;;;15.88;2.78;;;;;;;;;;5014131;28;20587;-61
2023/02/21 13:21:52;;;;;;;18.15;3.35;;;;;;;;;;5014320;28;20170;-60
2023/02/21 13:24:37;;;;;;;16.50;3.10;;;;;;;;;;5018144;28;20257;-60
2023/02/21 13:27:30;;;;;;;20.52;3.30;;;;;;;;;;5019454;28;20163;-61
2023/02/21 13:30:01;;;;;;;14.85;2.90;;;;;;;;;;5015954;28;20158;-61
2023/02/21 13:32:27;;;;;;;17.83;3.45;;;;;;;;;;5015135;28;20174;-61
2023/02/21 13:34:55;;;;;;;17.35;4.20;;;;;;;;;;5015342;28;20525;-60
2023/02/21 13:37:23;;;;;;;22.58;3.20;;;;;;;;;;5015569;28;20194;-60
2023/02/21 13:39:51;;;;;;;23.80;4.03;;;;;;;;;;5014110;28;20246;-59
2023/02/21 13:42:19;;;;;;;21.45;4.43;;;;;;;;;;5014334;28;20180;-59
2023/02/21 13:44:47;;;;;;;15.88;3.58;;;;;;;;;;5013630;28;20170;-57
2023/02/21 13:47:16;;;;;;;19.20;3.65;;;;;;;;;;5013792;28;20175;-61
2023/02/21 13:49:55;;;;;;;10.45;3.08;;;;;;;;;;5013863;28;20170;-61
2023/02/21 13:52:21;;;;;;;13.80;3.13;;;;;;;;;;5013711;28;20280;-62
2023/02/21 13:55:06;;;;;;;16.67;3.13;;;;;;;;;;5012584;28;20256;-62
2023/02/21 13:57:33;;;;;;;16.50;3.33;;;;;;;;;;5013403;28;20646;-61
2023/02/21 13:59:59;;;;;;;22.85;3.90;;;;;;;;;;5013784;28;20162;-61
2023/02/21 14:02:29;;;;;;;17.17;2.78;;;;;;;;;;5013407;28;20521;-61
2023/02/21 14:04:55;;;;;;;15.00;3.63;;;;;;;;;;5013379;28;20155;-60
2023/02/21 14:07:40;;;;;;;14.77;3.17;;;;;;;;;;5013576;28;20170;-60
2023/02/21 14:10:17;;;;;;;17.40;3.25;;;;;;;;;;5013499;28;20170;-60
2023/02/21 14:12:43;;;;;;;19.17;3.67;;;;;;;;;;5013670;28;20177;-60
2023/02/21 14:15:09;;;;;;;15.23;3.38;;;;;;;;;;5014296;28;20182;-61
2023/02/21 14:17:36;;;;;;;18.65;3.53;;;;;;;;;;5012946;28;20190;-61
2023/02/21 14:20:04;;;;;;;18.50;3.45;;;;;;;;;;5013192;28;20170;-61
2023/02/21 14:22:31;;;;;;;19.60;4.30;;;;;;;;;;5012863;28;20609;-60
2023/02/21 14:25:17;;;;;;;16.45;2.92;;;;;;;;;;5013166;28;20167;-62
2023/02/21 14:27:43;;;;;;;10.77;2.80;;;;;;;;;;5013441;28;20174;-59
2023/02/21 14:30:12;;;;;;;15.82;3.10;;;;;;;;;;5013081;28;20622;-60
2023/02/21 14:32:45;;;;;;;17.48;3.67;;;;;;;;;;5012921;28;20253;-61
2023/02/21 14:35:14;;;;;;;18.15;2.97;;;;;;;;;;5012719;28;20209;-61
2023/02/21 14:37:44;;;;;;;13.38;3.22;;;;;;;;;;5013043;28;20212;-61
2023/02/21 14:40:22;;;;;;;18.55;3.67;;;;;;;;;;5012787;28;20162;-61
2023/02/21 14:43:01;;;;;;;16.10;3.65;;;;;;;;;;5011998;28;20177;-61
2023/02/21 14:45:36;;;;;;;15.55;2.90;;;;;;;;;;5013188;28;20165;-60
2023/02/21 14:48:21;;;;;;;15.65;3.13;;;;;;;;;;5013043;28;20170;-60
2023/02/21 14:51:08;;;;;;;14.27;3.30;;;;;;;;;;5012691;28;20597;-61
2023/02/21 14:53:40;;;;;;;18.63;3.30;;;;;;;;;;5012012;28;20209;-61
2023/02/21 14:56:25;;;;;;;16.45;2.83;;;;;;;;;;5012475;28;20632;-59
2023/02/21 14:58:51;;;;;;;15.90;3.15;;;;;;;;;;5012598;28;20591;-60
2023/02/21 15:01:19;;;;;;;17.70;2.78;;;;;;;;;;5012714;28;20162;-59
2023/02/21 15:04:09;;;;;;;13.10;3.13;;;;;;;;;;5012322;28;20190;-60
2023/02/21 15:06:35;;;;;;;15.73;3.08;;;;;;;;;;5012145;28;20574;-61
2023/02/21 15:09:21;;;;;;;15.18;3.03;;;;;;;;;;5012370;28;20194;-60
2023/02/21 15:11:47;;;;;;;18.02;3.17;;;;;;;;;;5012697;28;20607;-60
2023/02/21 15:14:21;;;;;;;21.75;3.10;;;;;;;;;;5012681;28;20170;-62
2023/02/21 15:16:49;;;;;;;14.35;3.38;;;;;;;;;;5012908;28;20186;-62
2023/02/21 15:19:19;;;;;;;22.63;4.00;;;;;;;;;;5011366;28;20624;-62
2023/02/21 15:21:45;;;;;;;17.63;3.60;;;;;;;;;;5012670;28;20174;-61
2023/02/21 15:24:13;;;;;;;15.20;3.90;;;;;;;;;;5012777;28;20170;-61
2023/02/21 15:26:39;;;;;;;14.23;2.85;;;;;;;;;;5012550;28;20260;-60
2023/02/21 15:29:06;;;;;;;20.10;4.00;;;;;;;;;;5012566;28;20171;-60
2023/02/21 15:32:03;;;;;;;19.17;3.55;;;;;;;;;;5012534;28;20170;-61
2023/02/21 15:34:37;;;;;;;13.43;2.78;;;;;;;;;;5029883;28;20186;-58
2023/02/21 15:37:20;;;;;;;12.90;2.45;;;;;;;;;;5012555;28;20197;-61
2023/02/21 15:39:51;;;;;;;15.45;3.30;;;;;;;;;;5012736;28;20166;-57
2023/02/21 15:42:18;;;;;;;12.48;3.20;;;;;;;;;;5012115;28;20605;-58
2023/02/21 15:45:04;;;;;;;15.45;3.17;;;;;;;;;;5012558;28;20600;-61
2023/02/21 15:47:32;;;;;;;19.05;3.38;;;;;;;;;;5011767;28;20194;-59
2023/02/21 15:50:07;;;;;;;18.05;3.25;;;;;;;;;;5012237;28;20655;-59
2023/02/21 15:52:36;;;;;;;12.63;2.63;;;;;;;;;;5012398;28;20192;-61
2023/02/21 15:55:18;;;;;;;14.90;3.40;;;;;;;;;;5012201;28;20166;-59
2023/02/21 15:57:57;;;;;;;15.63;3.28;;;;;;;;;;5012133;28;20280;-61
2023/02/21 16:00:23;;;;;;;18.55;3.47;;;;;;;;;;5012272;28;20162;-60
2023/02/21 16:02:49;;;;;;;15.75;3.40;;;;;;;;;;5012141;28;20193;-62
2023/02/21 16:05:41;;;;;;;16.23;2.67;;;;;;;;;;5012275;28;20501;-60
2023/02/21 16:08:13;;;;;;;20.52;4.50;;;;;;;;;;5015508;28;20189;-61
2023/02/21 16:10:42;;;;;;;21.40;3.63;;;;;;;;;;5018963;28;20162;-61
2023/02/21 16:13:09;;;;;;;18.52;3.33;;;;;;;;;;5022312;28;20200;-61
2023/02/21 16:15:36;;;;;;;21.98;3.75;;;;;;;;;;5024896;28;20242;-62
2023/02/21 16:18:17;;;;;;;23.48;3.28;;;;;;;;;;5023409;28;20210;-61
2023/02/21 16:20:43;;;;;;;15.77;3.15;;;;;;;;;;5028045;28;20189;-62
2023/02/21 16:23:15;;;;;;;21.63;3.67;;;;;;;;;;5027484;28;20253;-61
2023/02/21 16:26:00;;;;;;;10.93;3.38;;;;;;;;;;5026431;28;20184;-62
2023/02/21 16:28:28;;;;;;;19.38;3.30;;;;;;;;;;5026679;28;20261;-61
2023/02/21 16:30:57;;;;;;;15.55;3.33;;;;;;;;;;5022298;28;20179;-60
2023/02/21 16:33:23;;;;;;;17.42;3.20;;;;;;;;;;5021729;28;20167;-61
2023/02/21 16:35:49;;;;;;;22.02;3.70;;;;;;;;;;5016137;28;20265;-61
2023/02/21 16:38:17;;;;;;;21.83;3.35;;;;;;;;;;5015455;28;20257;-59
2023/02/21 16:40:43;;;;;;;17.83;3.85;;;;;;;;;;5015976;28;20173;-61
2023/02/21 16:43:29;;;;;;;19.15;3.83;;;;;;;;;;5015307;28;20553;-61
2023/02/21 16:45:56;;;;;;;20.80;3.53;;;;;;;;;;5015370;28;20581;-62
2023/02/21 16:48:25;;;;;;;11.68;2.47;;;;;;;;;;5015622;28;20239;-62
2023/02/21 16:50:53;;;;;;;17.27;2.83;;;;;;;;;;5015009;28;20219;-60
2023/02/21 16:53:20;;;;;;;14.05;2.65;;;;;;;;;;5015088;28;20170;-60
2023/02/21 16:55:47;;;;;;;15.73;3.63;;;;;;;;;;5014772;28;20181;-62
2023/02/21 16:58:27;;;;;;;14.63;3.13;;;;;;;;;;5014606;28;20162;-61
2023/02/21 17:00:55;;;;;;;15.77;2.78;;;;;;;;;;5014988;28;20170;-60
2023/02/21 17:03:21;;;;;;;14.25;3.00;;;;;;;;;;5014680;28;20259;-59
2023/02/21 17:05:47;;;;;;;14.90;3.15;;;;;;;;;;5014870;28;20275;-60